Terminal Aerodrome Forecast
Issued by NWS

Home | Current Version | Previous Version | Text Only | Print | Product List | Glossary On
Versions: 1 2 3 4 5 6 7 8 9 10 11 12 13 14 15 16 17 18 19 20 21
000
FTUS41 KGYX 290520
TAFRKD
TAF
KRKD 290520Z 2906/3006 29003KT P6SM FEW080 BKN090
     FM291200 01005KT P6SM FEW250
     FM291500 VRB05KT P6SM BKN025
     FM300000 00000KT 1SM BR OVC001
      AMD LTD TO CLD VIS AND WIND=

USA.gov is the U.S. government's official web portal to all federal, state and local government web resources and services.